sensor_id;sensor_type;location;lat;lon;timestamp;temperature;humidity
63802;DHT22;49949;43.060;25.624;2023-06-04T00:01:08;17.90;99.90
63802;DHT22;49949;43.060;25.624;2023-06-04T00:03:34;17.90;99.90
63802;DHT22;49949;43.060;25.624;2023-06-04T00:06:00;17.90;99.90
63802;DHT22;49949;43.060;25.624;2023-06-04T00:08:26;17.90;99.90
63802;DHT22;49949;43.060;25.624;2023-06-04T00:10:51;17.90;99.90
63802;DHT22;49949;43.060;25.624;2023-06-04T00:13:17;17.90;99.90
63802;DHT22;49949;43.060;25.624;2023-06-04T00:15:43;17.90;99.90
63802;DHT22;49949;43.060;25.624;2023-06-04T00:18:08;17.90;99.90
63802;DHT22;49949;43.060;25.624;2023-06-04T00:20:36;18.00;99.90
63802;DHT22;49949;43.060;25.624;2023-06-04T00:23:03;18.00;99.90
63802;DHT22;49949;43.060;25.624;2023-06-04T00:25:28;18.00;99.90
63802;DHT22;49949;43.060;25.624;2023-06-04T00:27:54;18.00;99.90
63802;DHT22;49949;43.060;25.624;2023-06-04T00:30:20;18.00;99.90
63802;DHT22;49949;43.060;25.624;2023-06-04T00:32:46;18.00;99.90
63802;DHT22;49949;43.060;25.624;2023-06-04T00:35:12;18.00;99.90
63802;DHT22;49949;43.060;25.624;2023-06-04T00:37:38;18.10;99.90
63802;DHT22;49949;43.060;25.624;2023-06-04T00:40:05;18.10;99.90
63802;DHT22;49949;43.060;25.624;2023-06-04T00:42:31;18.10;99.90
63802;DHT22;49949;43.060;25.624;2023-06-04T00:44:57;18.10;99.90
63802;DHT22;49949;43.060;25.624;2023-06-04T00:47:23;18.10;99.90
63802;DHT22;49949;43.060;25.624;2023-06-04T00:49:49;18.00;99.90
63802;DHT22;49949;43.060;25.624;2023-06-04T00:52:16;18.00;99.90
63802;DHT22;49949;43.060;25.624;2023-06-04T00:54:42;17.90;99.90
63802;DHT22;49949;43.060;25.624;2023-06-04T00:57:07;17.90;99.90
63802;DHT22;49949;43.060;25.624;2023-06-04T00:59:36;17.90;99.90
63802;DHT22;49949;43.060;25.624;2023-06-04T01:04:47;17.80;99.90
63802;DHT22;49949;43.060;25.624;2023-06-04T01:07:16;17.80;99.90
63802;DHT22;49949;43.060;25.624;2023-06-04T01:09:44;17.90;99.90
63802;DHT22;49949;43.060;25.624;2023-06-04T01:12:11;17.90;99.90
63802;DHT22;49949;43.060;25.624;2023-06-04T01:14:37;17.90;99.90
63802;DHT22;49949;43.060;25.624;2023-06-04T01:17:29;17.80;99.90
63802;DHT22;49949;43.060;25.624;2023-06-04T01:20:18;17.80;99.90
63802;DHT22;49949;43.060;25.624;2023-06-04T01:25:31;17.80;99.90
63802;DHT22;49949;43.060;25.624;2023-06-04T01:27:58;17.80;99.90
63802;DHT22;49949;43.060;25.624;2023-06-04T01:30:26;17.70;99.90
63802;DHT22;49949;43.060;25.624;2023-06-04T01:32:55;17.70;99.90
63802;DHT22;49949;43.060;25.624;2023-06-04T01:35:22;17.60;99.90
63802;DHT22;49949;43.060;25.624;2023-06-04T01:37:48;17.60;99.90
63802;DHT22;49949;43.060;25.624;2023-06-04T01:40:14;17.60;99.90
63802;DHT22;49949;43.060;25.624;2023-06-04T01:42:41;17.60;99.90
63802;DHT22;49949;43.060;25.624;2023-06-04T01:45:08;17.50;99.90
63802;DHT22;49949;43.060;25.624;2023-06-04T01:47:34;17.50;99.90
63802;DHT22;49949;43.060;25.624;2023-06-04T01:50:01;17.50;99.90
63802;DHT22;49949;43.060;25.624;2023-06-04T01:52:27;17.50;99.90
63802;DHT22;49949;43.060;25.624;2023-06-04T01:54:53;17.40;99.90
63802;DHT22;49949;43.060;25.624;2023-06-04T01:57:20;17.40;99.90
63802;DHT22;49949;43.060;25.624;2023-06-04T01:59:46;17.30;99.90
63802;DHT22;49949;43.060;25.624;2023-06-04T02:02:12;17.40;99.90
63802;DHT22;49949;43.060;25.624;2023-06-04T02:04:38;17.30;99.90
63802;DHT22;49949;43.060;25.624;2023-06-04T02:07:08;17.30;99.90
63802;DHT22;49949;43.060;25.624;2023-06-04T02:09:35;17.30;99.90
63802;DHT22;49949;43.060;25.624;2023-06-04T02:12:01;17.30;99.90
63802;DHT22;49949;43.060;25.624;2023-06-04T02:14:27;17.30;99.90
63802;DHT22;49949;43.060;25.624;2023-06-04T02:16:53;17.20;99.90
63802;DHT22;49949;43.060;25.624;2023-06-04T02:19:24;17.10;99.90
63802;DHT22;49949;43.060;25.624;2023-06-04T02:21:52;17.00;99.90
63802;DHT22;49949;43.060;25.624;2023-06-04T02:24:17;17.00;99.90
63802;DHT22;49949;43.060;25.624;2023-06-04T02:26:43;17.00;99.90
63802;DHT22;49949;43.060;25.624;2023-06-04T02:29:09;17.00;99.90
63802;DHT22;49949;43.060;25.624;2023-06-04T02:31:35;17.00;99.90
63802;DHT22;49949;43.060;25.624;2023-06-04T02:34:00;17.00;99.90
63802;DHT22;49949;43.060;25.624;2023-06-04T02:36:26;17.00;99.90
63802;DHT22;49949;43.060;25.624;2023-06-04T02:38:51;17.00;99.90
63802;DHT22;49949;43.060;25.624;2023-06-04T02:41:18;16.90;99.90
63802;DHT22;49949;43.060;25.624;2023-06-04T02:43:44;16.90;99.90
63802;DHT22;49949;43.060;25.624;2023-06-04T02:46:09;16.80;99.90
63802;DHT22;49949;43.060;25.624;2023-06-04T02:48:35;16.70;99.90
63802;DHT22;49949;43.060;25.624;2023-06-04T02:51:01;16.70;99.90
63802;DHT22;49949;43.060;25.624;2023-06-04T02:53:27;16.70;99.90
63802;DHT22;49949;43.060;25.624;2023-06-04T02:55:52;16.60;99.90
63802;DHT22;49949;43.060;25.624;2023-06-04T02:58:18;16.60;99.90
63802;DHT22;49949;43.060;25.624;2023-06-04T03:00:44;16.60;99.90
63802;DHT22;49949;43.060;25.624;2023-06-04T03:03:10;16.60;99.90
63802;DHT22;49949;43.060;25.624;2023-06-04T03:05:36;16.60;99.90
63802;DHT22;49949;43.060;25.624;2023-06-04T03:08:05;16.60;99.90
63802;DHT22;49949;43.060;25.624;2023-06-04T03:10:31;16.70;99.90
63802;DHT22;49949;43.060;25.624;2023-06-04T03:12:57;16.60;99.90
63802;DHT22;49949;43.060;25.624;2023-06-04T03:15:23;16.60;99.90
63802;DHT22;49949;43.060;25.624;2023-06-04T03:17:48;16.50;99.90
63802;DHT22;49949;43.060;25.624;2023-06-04T03:20:16;16.50;99.90
63802;DHT22;49949;43.060;25.624;2023-06-04T03:22:42;16.50;99.90
63802;DHT22;49949;43.060;25.624;2023-06-04T03:25:08;16.50;99.90
63802;DHT22;49949;43.060;25.624;2023-06-04T03:27:34;16.40;99.90
63802;DHT22;49949;43.060;25.624;2023-06-04T03:30:01;16.40;99.90
63802;DHT22;49949;43.060;25.624;2023-06-04T03:32:27;16.40;99.90
63802;DHT22;49949;43.060;25.624;2023-06-04T03:34:53;16.40;99.90
63802;DHT22;49949;43.060;25.624;2023-06-04T03:37:19;16.40;99.90
63802;DHT22;49949;43.060;25.624;2023-06-04T03:39:44;16.40;99.90
63802;DHT22;49949;43.060;25.624;2023-06-04T03:42:10;16.40;99.90
63802;DHT22;49949;43.060;25.624;2023-06-04T03:44:36;16.40;99.90
63802;DHT22;49949;43.060;25.624;2023-06-04T03:47:01;16.40;99.90
63802;DHT22;49949;43.060;25.624;2023-06-04T03:49:27;16.40;99.90
63802;DHT22;49949;43.060;25.624;2023-06-04T03:51:53;16.40;99.90
63802;DHT22;49949;43.060;25.624;2023-06-04T03:54:19;16.30;99.90
63802;DHT22;49949;43.060;25.624;2023-06-04T03:56:47;16.30;99.90
63802;DHT22;49949;43.060;25.624;2023-06-04T03:59:13;16.40;99.90
63802;DHT22;49949;43.060;25.624;2023-06-04T04:01:39;16.40;99.90
63802;DHT22;49949;43.060;25.624;2023-06-04T04:04:05;16.40;99.90
63802;DHT22;49949;43.060;25.624;2023-06-04T04:06:30;16.50;99.90
63802;DHT22;49949;43.060;25.624;2023-06-04T04:08:56;16.50;99.90
63802;DHT22;49949;43.060;25.624;2023-06-04T04:11:23;16.50;99.90
63802;DHT22;49949;43.060;25.624;2023-06-04T04:13:50;16.50;99.90
63802;DHT22;49949;43.060;25.624;2023-06-04T04:16:16;16.50;99.90
63802;DHT22;49949;43.060;25.624;2023-06-04T04:18:42;16.50;99.90
63802;DHT22;49949;43.060;25.624;2023-06-04T04:21:10;16.50;99.90
63802;DHT22;49949;43.060;25.624;2023-06-04T04:23:38;16.40;99.90
63802;DHT22;49949;43.060;25.624;2023-06-04T04:26:08;16.40;99.90
63802;DHT22;49949;43.060;25.624;2023-06-04T04:28:35;16.40;99.90
63802;DHT22;49949;43.060;25.624;2023-06-04T04:31:01;16.40;99.90
63802;DHT22;49949;43.060;25.624;2023-06-04T04:33:30;16.50;99.90
63802;DHT22;49949;43.060;25.624;2023-06-04T04:36:05;16.50;99.90
63802;DHT22;49949;43.060;25.624;2023-06-04T04:38:34;16.60;99.90
63802;DHT22;49949;43.060;25.624;2023-06-04T04:41:00;16.70;99.90
63802;DHT22;49949;43.060;25.624;2023-06-04T04:43:30;16.80;99.90
63802;DHT22;49949;43.060;25.624;2023-06-04T04:45:56;16.80;99.90
63802;DHT22;49949;43.060;25.624;2023-06-04T04:48:22;16.80;99.90
63802;DHT22;49949;43.060;25.624;2023-06-04T04:50:48;16.90;99.90
63802;DHT22;49949;43.060;25.624;2023-06-04T04:53:13;16.90;99.90
63802;DHT22;49949;43.060;25.624;2023-06-04T04:55:39;16.90;99.90
63802;DHT22;49949;43.060;25.624;2023-06-04T04:58:05;16.80;99.90
63802;DHT22;49949;43.060;25.624;2023-06-04T05:00:31;16.80;99.90
63802;DHT22;49949;43.060;25.624;2023-06-04T05:02:56;16.80;99.90
63802;DHT22;49949;43.060;25.624;2023-06-04T05:05:22;16.80;99.90
63802;DHT22;49949;43.060;25.624;2023-06-04T05:07:48;16.80;99.90
63802;DHT22;49949;43.060;25.624;2023-06-04T05:10:14;16.80;99.90
63802;DHT22;49949;43.060;25.624;2023-06-04T05:12:40;16.80;99.90
63802;DHT22;49949;43.060;25.624;2023-06-04T05:15:15;16.90;99.90
63802;DHT22;49949;43.060;25.624;2023-06-04T05:17:43;16.90;99.90
63802;DHT22;49949;43.060;25.624;2023-06-04T05:20:09;17.00;99.90
63802;DHT22;49949;43.060;25.624;2023-06-04T05:22:35;17.00;99.90
63802;DHT22;49949;43.060;25.624;2023-06-04T05:25:01;17.10;99.90
63802;DHT22;49949;43.060;25.624;2023-06-04T05:27:27;17.20;99.90
63802;DHT22;49949;43.060;25.624;2023-06-04T05:29:53;17.20;99.90
63802;DHT22;49949;43.060;25.624;2023-06-04T05:32:19;17.20;99.90
63802;DHT22;49949;43.060;25.624;2023-06-04T05:34:46;17.30;99.90
63802;DHT22;49949;43.060;25.624;2023-06-04T05:37:12;17.30;99.90
63802;DHT22;49949;43.060;25.624;2023-06-04T05:39:38;17.30;99.90
63802;DHT22;49949;43.060;25.624;2023-06-04T05:42:04;17.40;99.90
63802;DHT22;49949;43.060;25.624;2023-06-04T05:44:31;17.40;99.90
63802;DHT22;49949;43.060;25.624;2023-06-04T05:47:00;17.50;99.90
63802;DHT22;49949;43.060;25.624;2023-06-04T05:49:25;17.40;99.90
63802;DHT22;49949;43.060;25.624;2023-06-04T05:51:52;17.50;99.90
63802;DHT22;49949;43.060;25.624;2023-06-04T05:54:17;17.60;99.90
63802;DHT22;49949;43.060;25.624;2023-06-04T05:56:43;17.70;99.90
63802;DHT22;49949;43.060;25.624;2023-06-04T05:59:09;17.80;99.90
63802;DHT22;49949;43.060;25.624;2023-06-04T06:01:34;17.90;99.90
63802;DHT22;49949;43.060;25.624;2023-06-04T06:04:00;18.00;99.90
63802;DHT22;49949;43.060;25.624;2023-06-04T06:06:26;18.20;99.90
63802;DHT22;49949;43.060;25.624;2023-06-04T06:08:52;18.40;99.90
63802;DHT22;49949;43.060;25.624;2023-06-04T06:11:20;18.70;99.90
63802;DHT22;49949;43.060;25.624;2023-06-04T06:13:47;19.00;99.90
63802;DHT22;49949;43.060;25.624;2023-06-04T06:16:12;19.40;99.90
63802;DHT22;49949;43.060;25.624;2023-06-04T06:18:38;19.80;99.90
63802;DHT22;49949;43.060;25.624;2023-06-04T06:21:04;20.60;99.90
63802;DHT22;49949;43.060;25.624;2023-06-04T06:23:29;21.20;99.90
63802;DHT22;49949;43.060;25.624;2023-06-04T06:25:55;21.70;99.90
63802;DHT22;49949;43.060;25.624;2023-06-04T06:28:21;22.10;99.90
63802;DHT22;49949;43.060;25.624;2023-06-04T06:30:47;22.60;99.90
63802;DHT22;49949;43.060;25.624;2023-06-04T06:33:13;22.40;99.90
63802;DHT22;49949;43.060;25.624;2023-06-04T06:35:39;22.40;99.90
63802;DHT22;49949;43.060;25.624;2023-06-04T06:38:05;22.50;99.90
63802;DHT22;49949;43.060;25.624;2023-06-04T06:40:30;22.60;99.90
63802;DHT22;49949;43.060;25.624;2023-06-04T06:42:56;22.60;99.90
63802;DHT22;49949;43.060;25.624;2023-06-04T06:45:22;22.50;99.90
63802;DHT22;49949;43.060;25.624;2023-06-04T06:47:48;22.60;99.90
63802;DHT22;49949;43.060;25.624;2023-06-04T06:50:13;22.70;99.90
63802;DHT22;49949;43.060;25.624;2023-06-04T06:52:39;22.80;99.90
63802;DHT22;49949;43.060;25.624;2023-06-04T06:55:08;22.90;99.90
63802;DHT22;49949;43.060;25.624;2023-06-04T06:57:35;22.90;99.90
63802;DHT22;49949;43.060;25.624;2023-06-04T07:00:01;23.00;99.90
63802;DHT22;49949;43.060;25.624;2023-06-04T07:02:27;22.90;99.90
63802;DHT22;49949;43.060;25.624;2023-06-04T07:04:54;22.80;99.90
63802;DHT22;49949;43.060;25.624;2023-06-04T07:07:19;22.80;99.90
63802;DHT22;49949;43.060;25.624;2023-06-04T07:09:45;22.70;99.90
63802;DHT22;49949;43.060;25.624;2023-06-04T07:12:11;22.60;99.90
63802;DHT22;49949;43.060;25.624;2023-06-04T07:14:37;22.40;99.90
63802;DHT22;49949;43.060;25.624;2023-06-04T07:17:02;22.10;99.90
63802;DHT22;49949;43.060;25.624;2023-06-04T07:19:28;21.90;99.90
63802;DHT22;49949;43.060;25.624;2023-06-04T07:21:54;21.70;99.90
63802;DHT22;49949;43.060;25.624;2023-06-04T07:24:21;21.40;99.90
63802;DHT22;49949;43.060;25.624;2023-06-04T07:26:47;21.20;99.90
63802;DHT22;49949;43.060;25.624;2023-06-04T07:29:13;21.20;99.90
63802;DHT22;49949;43.060;25.624;2023-06-04T07:31:39;21.20;99.90
63802;DHT22;49949;43.060;25.624;2023-06-04T07:34:05;21.40;99.90
63802;DHT22;49949;43.060;25.624;2023-06-04T07:36:30;21.10;99.90
63802;DHT22;49949;43.060;25.624;2023-06-04T07:38:56;21.20;99.90
63802;DHT22;49949;43.060;25.624;2023-06-04T07:41:22;21.00;99.90
63802;DHT22;49949;43.060;25.624;2023-06-04T07:43:48;21.10;99.90
63802;DHT22;49949;43.060;25.624;2023-06-04T07:46:13;20.90;99.90
63802;DHT22;49949;43.060;25.624;2023-06-04T07:48:44;21.00;99.90
63802;DHT22;49949;43.060;25.624;2023-06-04T07:51:10;21.00;99.90
63802;DHT22;49949;43.060;25.624;2023-06-04T07:53:37;21.10;99.90
63802;DHT22;49949;43.060;25.624;2023-06-04T07:56:06;21.30;99.90
63802;DHT22;49949;43.060;25.624;2023-06-04T07:58:32;21.50;99.90
63802;DHT22;49949;43.060;25.624;2023-06-04T08:00:59;21.70;99.90
63802;DHT22;49949;43.060;25.624;2023-06-04T08:03:25;22.20;99.90
63802;DHT22;49949;43.060;25.624;2023-06-04T08:05:53;22.40;99.90
63802;DHT22;49949;43.060;25.624;2023-06-04T08:08:19;22.40;99.90
63802;DHT22;49949;43.060;25.624;2023-06-04T08:10:45;22.50;99.90
63802;DHT22;49949;43.060;25.624;2023-06-04T08:13:11;22.30;99.90
63802;DHT22;49949;43.060;25.624;2023-06-04T08:15:37;22.20;99.90
63802;DHT22;49949;43.060;25.624;2023-06-04T08:18:02;22.00;99.90
63802;DHT22;49949;43.060;25.624;2023-06-04T08:20:28;22.10;99.90
63802;DHT22;49949;43.060;25.624;2023-06-04T08:22:54;22.10;99.90
63802;DHT22;49949;43.060;25.624;2023-06-04T08:25:22;22.10;99.90
63802;DHT22;49949;43.060;25.624;2023-06-04T08:27:48;22.10;99.90
63802;DHT22;49949;43.060;25.624;2023-06-04T08:30:14;22.20;99.90
63802;DHT22;49949;43.060;25.624;2023-06-04T08:32:39;22.10;99.90
63802;DHT22;49949;43.060;25.624;2023-06-04T08:35:07;21.90;99.90
63802;DHT22;49949;43.060;25.624;2023-06-04T08:37:32;21.90;99.90
63802;DHT22;49949;43.060;25.624;2023-06-04T08:39:58;21.70;99.90
63802;DHT22;49949;43.060;25.624;2023-06-04T08:42:31;21.90;99.90
63802;DHT22;49949;43.060;25.624;2023-06-04T08:45:00;22.10;99.90
63802;DHT22;49949;43.060;25.624;2023-06-04T08:47:26;22.10;99.90
63802;DHT22;49949;43.060;25.624;2023-06-04T08:49:59;22.40;99.90
63802;DHT22;49949;43.060;25.624;2023-06-04T08:52:26;22.80;99.90
63802;DHT22;49949;43.060;25.624;2023-06-04T08:54:53;23.20;99.90
63802;DHT22;49949;43.060;25.624;2023-06-04T08:57:20;23.00;99.90
63802;DHT22;49949;43.060;25.624;2023-06-04T08:59:46;23.20;99.90
63802;DHT22;49949;43.060;25.624;2023-06-04T09:02:15;23.40;99.90
63802;DHT22;49949;43.060;25.624;2023-06-04T09:04:42;23.10;99.90
63802;DHT22;49949;43.060;25.624;2023-06-04T09:07:10;23.00;99.90
63802;DHT22;49949;43.060;25.624;2023-06-04T09:09:42;22.70;99.90
63802;DHT22;49949;43.060;25.624;2023-06-04T09:12:13;22.30;99.90
63802;DHT22;49949;43.060;25.624;2023-06-04T09:14:40;22.30;99.90
63802;DHT22;49949;43.060;25.624;2023-06-04T09:17:06;22.30;99.90
63802;DHT22;49949;43.060;25.624;2023-06-04T09:19:31;22.60;99.90
63802;DHT22;49949;43.060;25.624;2023-06-04T09:21:58;22.90;99.90
63802;DHT22;49949;43.060;25.624;2023-06-04T09:24:28;23.10;99.90
63802;DHT22;49949;43.060;25.624;2023-06-04T09:27:16;23.20;99.90
63802;DHT22;49949;43.060;25.624;2023-06-04T09:29:50;23.30;99.90
63802;DHT22;49949;43.060;25.624;2023-06-04T09:32:25;23.40;99.90
63802;DHT22;49949;43.060;25.624;2023-06-04T09:34:53;23.80;99.90
63802;DHT22;49949;43.060;25.624;2023-06-04T09:37:20;23.80;99.90
63802;DHT22;49949;43.060;25.624;2023-06-04T09:39:53;23.70;99.00
63802;DHT22;49949;43.060;25.624;2023-06-04T09:42:21;24.00;97.80
63802;DHT22;49949;43.060;25.624;2023-06-04T09:44:48;24.20;99.00
63802;DHT22;49949;43.060;25.624;2023-06-04T09:47:13;24.30;97.90
63802;DHT22;49949;43.060;25.624;2023-06-04T09:49:46;24.50;97.00
63802;DHT22;49949;43.060;25.624;2023-06-04T09:52:13;24.40;96.20
63802;DHT22;49949;43.060;25.624;2023-06-04T09:54:41;24.40;96.40
63802;DHT22;49949;43.060;25.624;2023-06-04T09:57:15;24.20;96.10
63802;DHT22;49949;43.060;25.624;2023-06-04T09:59:43;24.30;96.00
63802;DHT22;49949;43.060;25.624;2023-06-04T10:02:11;24.30;96.70
63802;DHT22;49949;43.060;25.624;2023-06-04T10:04:41;24.50;95.50
63802;DHT22;49949;43.060;25.624;2023-06-04T10:07:09;24.50;94.40
63802;DHT22;49949;43.060;25.624;2023-06-04T10:09:38;24.50;93.20
63802;DHT22;49949;43.060;25.624;2023-06-04T10:12:13;24.50;96.30
63802;DHT22;49949;43.060;25.624;2023-06-04T10:15:02;23.80;96.00
63802;DHT22;49949;43.060;25.624;2023-06-04T10:17:28;24.10;94.60
63802;DHT22;49949;43.060;25.624;2023-06-04T10:19:58;23.90;95.60
63802;DHT22;49949;43.060;25.624;2023-06-04T10:22:25;23.70;95.80
63802;DHT22;49949;43.060;25.624;2023-06-04T10:24:51;23.60;96.50
63802;DHT22;49949;43.060;25.624;2023-06-04T10:27:17;23.40;96.80
63802;DHT22;49949;43.060;25.624;2023-06-04T10:29:45;23.60;97.50
63802;DHT22;49949;43.060;25.624;2023-06-04T10:32:11;23.50;96.90
63802;DHT22;49949;43.060;25.624;2023-06-04T10:34:37;23.80;97.40
63802;DHT22;49949;43.060;25.624;2023-06-04T10:37:03;23.70;95.30
63802;DHT22;49949;43.060;25.624;2023-06-04T10:39:30;23.60;95.80
63802;DHT22;49949;43.060;25.624;2023-06-04T10:42:04;23.80;96.50
63802;DHT22;49949;43.060;25.624;2023-06-04T10:44:31;23.80;96.00
63802;DHT22;49949;43.060;25.624;2023-06-04T10:46:58;23.90;95.70
63802;DHT22;49949;43.060;25.624;2023-06-04T10:49:28;24.00;95.10
63802;DHT22;49949;43.060;25.624;2023-06-04T10:51:54;24.10;94.70
63802;DHT22;49949;43.060;25.624;2023-06-04T10:54:28;24.00;95.50
63802;DHT22;49949;43.060;25.624;2023-06-04T10:56:54;24.00;95.30
63802;DHT22;49949;43.060;25.624;2023-06-04T10:59:21;24.10;94.10
63802;DHT22;49949;43.060;25.624;2023-06-04T11:02:08;24.30;95.30
63802;DHT22;49949;43.060;25.624;2023-06-04T11:04:34;24.50;93.30
63802;DHT22;49949;43.060;25.624;2023-06-04T11:07:04;24.70;91.80
63802;DHT22;49949;43.060;25.624;2023-06-04T11:09:35;24.50;92.40
63802;DHT22;49949;43.060;25.624;2023-06-04T11:12:02;24.40;92.30
63802;DHT22;49949;43.060;25.624;2023-06-04T11:14:27;24.20;93.20
63802;DHT22;49949;43.060;25.624;2023-06-04T11:16:53;24.30;92.80
63802;DHT22;49949;43.060;25.624;2023-06-04T11:19:19;24.40;94.30
63802;DHT22;49949;43.060;25.624;2023-06-04T11:21:45;24.60;90.80
63802;DHT22;49949;43.060;25.624;2023-06-04T11:24:14;24.50;89.50
63802;DHT22;49949;43.060;25.624;2023-06-04T11:26:40;24.10;91.50
63802;DHT22;49949;43.060;25.624;2023-06-04T11:29:07;24.30;92.50
63802;DHT22;49949;43.060;25.624;2023-06-04T11:31:49;24.50;89.30
63802;DHT22;49949;43.060;25.624;2023-06-04T11:34:24;24.60;91.60
63802;DHT22;49949;43.060;25.624;2023-06-04T11:36:50;24.80;89.30
63802;DHT22;49949;43.060;25.624;2023-06-04T11:39:19;24.70;90.60
63802;DHT22;49949;43.060;25.624;2023-06-04T11:41:45;24.60;91.30
63802;DHT22;49949;43.060;25.624;2023-06-04T11:44:12;24.70;91.20
63802;DHT22;49949;43.060;25.624;2023-06-04T11:46:42;24.70;90.90
63802;DHT22;49949;43.060;25.624;2023-06-04T11:49:18;24.80;92.80
63802;DHT22;49949;43.060;25.624;2023-06-04T11:51:48;24.60;89.70
63802;DHT22;49949;43.060;25.624;2023-06-04T11:54:15;24.50;91.10
63802;DHT22;49949;43.060;25.624;2023-06-04T11:56:42;24.80;91.80
63802;DHT22;49949;43.060;25.624;2023-06-04T11:59:13;24.80;90.80
63802;DHT22;49949;43.060;25.624;2023-06-04T12:01:43;25.00;91.10
63802;DHT22;49949;43.060;25.624;2023-06-04T12:06:50;25.00;91.10
63802;DHT22;49949;43.060;25.624;2023-06-04T12:09:21;25.00;91.00
63802;DHT22;49949;43.060;25.624;2023-06-04T12:11:47;24.90;90.30
63802;DHT22;49949;43.060;25.624;2023-06-04T12:14:16;25.10;91.70
63802;DHT22;49949;43.060;25.624;2023-06-04T12:16:59;25.40;88.70
63802;DHT22;49949;43.060;25.624;2023-06-04T12:19:26;25.90;87.50
63802;DHT22;49949;43.060;25.624;2023-06-04T12:22:03;25.60;88.40
63802;DHT22;49949;43.060;25.624;2023-06-04T12:24:31;25.40;89.00
63802;DHT22;49949;43.060;25.624;2023-06-04T12:27:05;25.10;90.30
63802;DHT22;49949;43.060;25.624;2023-06-04T12:29:35;24.80;90.40
63802;DHT22;49949;43.060;25.624;2023-06-04T12:32:06;24.80;89.70
63802;DHT22;49949;43.060;25.624;2023-06-04T12:34:39;24.80;90.40
63802;DHT22;49949;43.060;25.624;2023-06-04T12:37:06;24.90;90.50
63802;DHT22;49949;43.060;25.624;2023-06-04T12:39:36;24.90;90.60
63802;DHT22;49949;43.060;25.624;2023-06-04T12:42:06;24.90;91.50
63802;DHT22;49949;43.060;25.624;2023-06-04T12:44:32;24.80;90.50
63802;DHT22;49949;43.060;25.624;2023-06-04T12:46:58;24.80;90.60
63802;DHT22;49949;43.060;25.624;2023-06-04T12:49:23;24.90;90.20
63802;DHT22;49949;43.060;25.624;2023-06-04T12:51:50;24.90;89.60
63802;DHT22;49949;43.060;25.624;2023-06-04T12:54:15;24.90;89.70
63802;DHT22;49949;43.060;25.624;2023-06-04T12:56:41;24.90;89.70
63802;DHT22;49949;43.060;25.624;2023-06-04T12:59:08;25.10;88.50
63802;DHT22;49949;43.060;25.624;2023-06-04T13:01:34;25.00;88.60
63802;DHT22;49949;43.060;25.624;2023-06-04T13:04:00;25.10;89.00
63802;DHT22;49949;43.060;25.624;2023-06-04T13:06:26;25.30;87.80
63802;DHT22;49949;43.060;25.624;2023-06-04T13:08:52;25.30;88.30
63802;DHT22;49949;43.060;25.624;2023-06-04T13:11:17;25.40;85.20
63802;DHT22;49949;43.060;25.624;2023-06-04T13:13:43;25.30;86.20
63802;DHT22;49949;43.060;25.624;2023-06-04T13:16:09;25.30;86.90
63802;DHT22;49949;43.060;25.624;2023-06-04T13:18:35;25.40;86.50
63802;DHT22;49949;43.060;25.624;2023-06-04T13:21:01;25.20;87.40
63802;DHT22;49949;43.060;25.624;2023-06-04T13:23:27;25.00;88.60
63802;DHT22;49949;43.060;25.624;2023-06-04T13:25:53;24.90;88.50
63802;DHT22;49949;43.060;25.624;2023-06-04T13:28:19;24.70;88.60
63802;DHT22;49949;43.060;25.624;2023-06-04T13:30:46;24.70;89.00
63802;DHT22;49949;43.060;25.624;2023-06-04T13:33:12;24.60;89.10
63802;DHT22;49949;43.060;25.624;2023-06-04T13:35:37;24.80;89.00
63802;DHT22;49949;43.060;25.624;2023-06-04T13:38:05;25.20;86.90
63802;DHT22;49949;43.060;25.624;2023-06-04T13:40:36;25.60;85.40
63802;DHT22;49949;43.060;25.624;2023-06-04T13:43:02;25.70;84.30
63802;DHT22;49949;43.060;25.624;2023-06-04T13:45:28;25.50;82.90
63802;DHT22;49949;43.060;25.624;2023-06-04T13:47:53;25.60;84.00
63802;DHT22;49949;43.060;25.624;2023-06-04T13:50:19;25.30;83.90
63802;DHT22;49949;43.060;25.624;2023-06-04T13:52:45;25.20;84.20
63802;DHT22;49949;43.060;25.624;2023-06-04T13:55:12;25.00;84.50
63802;DHT22;49949;43.060;25.624;2023-06-04T13:57:38;24.80;85.50
63802;DHT22;49949;43.060;25.624;2023-06-04T14:00:05;24.80;85.80
63802;DHT22;49949;43.060;25.624;2023-06-04T14:02:32;24.80;86.60
63802;DHT22;49949;43.060;25.624;2023-06-04T14:04:57;24.70;86.20
63802;DHT22;49949;43.060;25.624;2023-06-04T14:07:23;24.70;84.80
63802;DHT22;49949;43.060;25.624;2023-06-04T14:09:49;24.70;86.20
63802;DHT22;49949;43.060;25.624;2023-06-04T14:12:23;24.80;85.90
63802;DHT22;49949;43.060;25.624;2023-06-04T14:14:49;24.80;86.30
63802;DHT22;49949;43.060;25.624;2023-06-04T14:17:15;24.70;86.00
63802;DHT22;49949;43.060;25.624;2023-06-04T14:19:41;24.80;87.20
63802;DHT22;49949;43.060;25.624;2023-06-04T14:22:07;24.70;86.10
63802;DHT22;49949;43.060;25.624;2023-06-04T14:24:33;24.60;85.80
63802;DHT22;49949;43.060;25.624;2023-06-04T14:26:59;24.50;85.80
63802;DHT22;49949;43.060;25.624;2023-06-04T14:29:25;24.60;83.70
63802;DHT22;49949;43.060;25.624;2023-06-04T14:31:51;24.50;84.70
63802;DHT22;49949;43.060;25.624;2023-06-04T14:34:16;24.50;85.70
63802;DHT22;49949;43.060;25.624;2023-06-04T14:36:42;24.50;85.80
63802;DHT22;49949;43.060;25.624;2023-06-04T14:39:08;24.60;86.40
63802;DHT22;49949;43.060;25.624;2023-06-04T14:41:33;24.60;87.40
63802;DHT22;49949;43.060;25.624;2023-06-04T14:43:59;24.70;90.50
63802;DHT22;49949;43.060;25.624;2023-06-04T14:46:25;24.80;89.50
63802;DHT22;49949;43.060;25.624;2023-06-04T14:48:51;24.70;94.30
63802;DHT22;49949;43.060;25.624;2023-06-04T14:51:17;24.60;95.80
63802;DHT22;49949;43.060;25.624;2023-06-04T14:53:43;24.30;97.90
63802;DHT22;49949;43.060;25.624;2023-06-04T14:56:09;23.90;99.90
63802;DHT22;49949;43.060;25.624;2023-06-04T14:58:36;23.40;99.90
63802;DHT22;49949;43.060;25.624;2023-06-04T15:01:02;23.20;99.90
63802;DHT22;49949;43.060;25.624;2023-06-04T15:03:29;23.00;99.90
63802;DHT22;49949;43.060;25.624;2023-06-04T15:05:56;23.00;99.90
63802;DHT22;49949;43.060;25.624;2023-06-04T15:08:22;22.90;99.90
63802;DHT22;49949;43.060;25.624;2023-06-04T15:10:47;22.90;99.90
63802;DHT22;49949;43.060;25.624;2023-06-04T15:13:14;22.90;99.90
63802;DHT22;49949;43.060;25.624;2023-06-04T15:15:43;22.90;99.90
63802;DHT22;49949;43.060;25.624;2023-06-04T15:18:09;23.00;99.90
63802;DHT22;49949;43.060;25.624;2023-06-04T15:20:34;22.90;99.90
63802;DHT22;49949;43.060;25.624;2023-06-04T15:23:00;22.80;99.90